sensor_id;sensor_type;location;lat;lon;timestamp;temperature;humidity
26947;DHT22;14501;52.282;10.560;2023-04-06T00:04:12;0.90;99.90
26947;DHT22;14501;52.282;10.560;2023-04-06T00:09:03;0.80;99.90
26947;DHT22;14501;52.282;10.560;2023-04-06T00:11:29;0.90;99.90
26947;DHT22;14501;52.282;10.560;2023-04-06T00:13:55;0.80;99.90
26947;DHT22;14501;52.282;10.560;2023-04-06T00:16:21;1.50;99.90
26947;DHT22;14501;52.282;10.560;2023-04-06T00:18:46;0.80;99.90
26947;DHT22;14501;52.282;10.560;2023-04-06T00:21:13;0.80;99.90
26947;DHT22;14501;52.282;10.560;2023-04-06T00:23:40;0.80;99.90
26947;DHT22;14501;52.282;10.560;2023-04-06T00:26:06;0.80;99.90
26947;DHT22;14501;52.282;10.560;2023-04-06T00:30:57;0.80;99.90
26947;DHT22;14501;52.282;10.560;2023-04-06T00:33:23;0.80;99.90
26947;DHT22;14501;52.282;10.560;2023-04-06T00:35:49;0.70;99.90
26947;DHT22;14501;52.282;10.560;2023-04-06T00:38:15;0.80;99.90
26947;DHT22;14501;52.282;10.560;2023-04-06T00:43:09;0.80;99.90
26947;DHT22;14501;52.282;10.560;2023-04-06T00:45:36;0.70;99.90
26947;DHT22;14501;52.282;10.560;2023-04-06T00:48:03;0.60;99.90
26947;DHT22;14501;52.282;10.560;2023-04-06T00:50:29;0.60;99.90
26947;DHT22;14501;52.282;10.560;2023-04-06T00:52:55;0.50;99.90
26947;DHT22;14501;52.282;10.560;2023-04-06T00:55:21;0.50;99.90
26947;DHT22;14501;52.282;10.560;2023-04-06T00:57:47;0.40;99.90
26947;DHT22;14501;52.282;10.560;2023-04-06T01:00:13;0.30;99.90
26947;DHT22;14501;52.282;10.560;2023-04-06T01:02:39;0.30;99.90
26947;DHT22;14501;52.282;10.560;2023-04-06T01:05:06;0.20;99.90
26947;DHT22;14501;52.282;10.560;2023-04-06T01:07:32;0.20;99.90
26947;DHT22;14501;52.282;10.560;2023-04-06T01:09:57;0.10;99.90
26947;DHT22;14501;52.282;10.560;2023-04-06T01:12:24;0.00;99.90
26947;DHT22;14501;52.282;10.560;2023-04-06T01:14:49;0.00;99.90
26947;DHT22;14501;52.282;10.560;2023-04-06T01:17:15;-0.10;99.90
26947;DHT22;14501;52.282;10.560;2023-04-06T01:19:41;-0.10;99.90
26947;DHT22;14501;52.282;10.560;2023-04-06T01:22:07;-0.20;99.90
26947;DHT22;14501;52.282;10.560;2023-04-06T01:24:33;-0.20;99.90
26947;DHT22;14501;52.282;10.560;2023-04-06T01:26:59;-0.20;99.90
26947;DHT22;14501;52.282;10.560;2023-04-06T01:29:26;-0.20;99.90
26947;DHT22;14501;52.282;10.560;2023-04-06T01:31:51;-0.20;99.90
26947;DHT22;14501;52.282;10.560;2023-04-06T01:34:17;-0.20;99.90
26947;DHT22;14501;52.282;10.560;2023-04-06T01:36:43;-0.20;99.90
26947;DHT22;14501;52.282;10.560;2023-04-06T01:39:08;-0.20;99.90
26947;DHT22;14501;52.282;10.560;2023-04-06T01:41:35;-0.20;99.90
26947;DHT22;14501;52.282;10.560;2023-04-06T01:44:01;-0.20;99.90
26947;DHT22;14501;52.282;10.560;2023-04-06T01:46:27;-0.30;99.90
26947;DHT22;14501;52.282;10.560;2023-04-06T01:48:53;-0.30;99.90
26947;DHT22;14501;52.282;10.560;2023-04-06T01:51:19;-0.30;99.90
26947;DHT22;14501;52.282;10.560;2023-04-06T01:53:44;-0.30;99.90
26947;DHT22;14501;52.282;10.560;2023-04-06T01:56:10;-0.40;99.90
26947;DHT22;14501;52.282;10.560;2023-04-06T01:58:36;-0.20;99.90
26947;DHT22;14501;52.282;10.560;2023-04-06T02:01:01;-0.40;99.90
26947;DHT22;14501;52.282;10.560;2023-04-06T02:03:27;-0.40;99.90
26947;DHT22;14501;52.282;10.560;2023-04-06T02:05:53;-0.40;99.90
26947;DHT22;14501;52.282;10.560;2023-04-06T02:08:18;-0.40;99.90
26947;DHT22;14501;52.282;10.560;2023-04-06T02:10:44;-0.40;99.90
26947;DHT22;14501;52.282;10.560;2023-04-06T02:13:10;-0.40;99.90
26947;DHT22;14501;52.282;10.560;2023-04-06T02:15:36;-0.40;99.90
26947;DHT22;14501;52.282;10.560;2023-04-06T02:18:01;-0.50;99.90
26947;DHT22;14501;52.282;10.560;2023-04-06T02:20:27;-0.50;99.90
26947;DHT22;14501;52.282;10.560;2023-04-06T02:22:53;-0.50;99.90
26947;DHT22;14501;52.282;10.560;2023-04-06T02:25:18;-0.60;99.90
26947;DHT22;14501;52.282;10.560;2023-04-06T02:27:44;-0.60;99.90
26947;DHT22;14501;52.282;10.560;2023-04-06T02:30:10;-0.60;99.90
26947;DHT22;14501;52.282;10.560;2023-04-06T02:32:36;0.30;99.90
26947;DHT22;14501;52.282;10.560;2023-04-06T02:35:01;-0.70;99.90
26947;DHT22;14501;52.282;10.560;2023-04-06T02:37:27;-0.70;99.90
26947;DHT22;14501;52.282;10.560;2023-04-06T02:39:53;-0.70;99.90
26947;DHT22;14501;52.282;10.560;2023-04-06T02:42:19;-0.80;99.90
26947;DHT22;14501;52.282;10.560;2023-04-06T02:44:45;-0.80;99.90
26947;DHT22;14501;52.282;10.560;2023-04-06T02:47:10;-0.80;99.90
26947;DHT22;14501;52.282;10.560;2023-04-06T02:49:36;-0.80;99.90
26947;DHT22;14501;52.282;10.560;2023-04-06T02:52:02;-0.80;99.90
26947;DHT22;14501;52.282;10.560;2023-04-06T02:54:28;-0.80;99.90
26947;DHT22;14501;52.282;10.560;2023-04-06T02:56:53;-0.80;99.90
26947;DHT22;14501;52.282;10.560;2023-04-06T02:59:19;-0.80;99.90
26947;DHT22;14501;52.282;10.560;2023-04-06T03:01:45;-0.80;99.90
26947;DHT22;14501;52.282;10.560;2023-04-06T03:04:11;-0.80;99.90
26947;DHT22;14501;52.282;10.560;2023-04-06T03:06:37;-0.80;99.90
26947;DHT22;14501;52.282;10.560;2023-04-06T03:09:03;-0.90;99.90
26947;DHT22;14501;52.282;10.560;2023-04-06T03:11:28;-0.90;99.90
26947;DHT22;14501;52.282;10.560;2023-04-06T03:13:54;-0.90;99.90
26947;DHT22;14501;52.282;10.560;2023-04-06T03:16:20;-0.90;99.90
26947;DHT22;14501;52.282;10.560;2023-04-06T03:18:45;-1.00;99.90
26947;DHT22;14501;52.282;10.560;2023-04-06T03:21:13;-1.00;99.90
26947;DHT22;14501;52.282;10.560;2023-04-06T03:23:40;-1.00;99.90
26947;DHT22;14501;52.282;10.560;2023-04-06T03:26:06;-1.10;99.90
26947;DHT22;14501;52.282;10.560;2023-04-06T03:28:32;-1.10;99.90
26947;DHT22;14501;52.282;10.560;2023-04-06T03:30:57;-1.10;99.90
26947;DHT22;14501;52.282;10.560;2023-04-06T03:33:23;-1.10;99.90
26947;DHT22;14501;52.282;10.560;2023-04-06T03:35:49;-1.00;99.90
26947;DHT22;14501;52.282;10.560;2023-04-06T03:38:14;-1.00;99.90
26947;DHT22;14501;52.282;10.560;2023-04-06T03:40:41;-1.10;99.90
26947;DHT22;14501;52.282;10.560;2023-04-06T03:43:07;-1.10;99.90
26947;DHT22;14501;52.282;10.560;2023-04-06T03:45:33;-1.10;99.90
26947;DHT22;14501;52.282;10.560;2023-04-06T03:47:59;-1.10;99.90
26947;DHT22;14501;52.282;10.560;2023-04-06T03:50:24;-1.20;99.90
26947;DHT22;14501;52.282;10.560;2023-04-06T03:52:50;-1.20;99.90
26947;DHT22;14501;52.282;10.560;2023-04-06T03:55:16;-1.30;99.90
26947;DHT22;14501;52.282;10.560;2023-04-06T03:57:42;-1.20;99.90
26947;DHT22;14501;52.282;10.560;2023-04-06T04:00:08;-1.20;99.90
26947;DHT22;14501;52.282;10.560;2023-04-06T04:02:34;-1.30;99.90
26947;DHT22;14501;52.282;10.560;2023-04-06T04:05:00;-1.30;99.90
26947;DHT22;14501;52.282;10.560;2023-04-06T04:07:26;-1.30;99.90
26947;DHT22;14501;52.282;10.560;2023-04-06T04:09:52;-1.40;99.90
26947;DHT22;14501;52.282;10.560;2023-04-06T04:12:18;-1.40;99.90
26947;DHT22;14501;52.282;10.560;2023-04-06T04:14:43;-1.40;99.90
26947;DHT22;14501;52.282;10.560;2023-04-06T04:17:09;-1.40;99.90
26947;DHT22;14501;52.282;10.560;2023-04-06T04:19:35;-1.40;99.90
26947;DHT22;14501;52.282;10.560;2023-04-06T04:22:01;-1.30;99.90
26947;DHT22;14501;52.282;10.560;2023-04-06T04:24:29;-1.20;99.90
26947;DHT22;14501;52.282;10.560;2023-04-06T04:26:55;-1.20;99.90
26947;DHT22;14501;52.282;10.560;2023-04-06T04:29:21;-1.30;99.90
26947;DHT22;14501;52.282;10.560;2023-04-06T04:31:48;-1.30;99.90
26947;DHT22;14501;52.282;10.560;2023-04-06T04:34:14;-1.30;99.90
26947;DHT22;14501;52.282;10.560;2023-04-06T04:36:40;-1.30;99.90
26947;DHT22;14501;52.282;10.560;2023-04-06T04:39:07;-1.30;99.90
26947;DHT22;14501;52.282;10.560;2023-04-06T04:41:33;-1.30;99.90
26947;DHT22;14501;52.282;10.560;2023-04-06T04:43:59;-1.40;99.90
26947;DHT22;14501;52.282;10.560;2023-04-06T04:46:25;-1.40;99.90
26947;DHT22;14501;52.282;10.560;2023-04-06T04:48:50;-1.40;99.90
26947;DHT22;14501;52.282;10.560;2023-04-06T04:51:16;-1.30;99.90
26947;DHT22;14501;52.282;10.560;2023-04-06T04:53:42;-1.40;99.90
26947;DHT22;14501;52.282;10.560;2023-04-06T04:56:07;-1.40;99.90
26947;DHT22;14501;52.282;10.560;2023-04-06T04:58:33;-1.20;99.90
26947;DHT22;14501;52.282;10.560;2023-04-06T05:00:59;-1.30;99.90
26947;DHT22;14501;52.282;10.560;2023-04-06T05:03:26;-1.30;99.90
26947;DHT22;14501;52.282;10.560;2023-04-06T05:05:52;-1.30;99.90
26947;DHT22;14501;52.282;10.560;2023-04-06T05:08:18;-1.20;99.90
26947;DHT22;14501;52.282;10.560;2023-04-06T05:10:44;-1.10;99.90
26947;DHT22;14501;52.282;10.560;2023-04-06T05:13:10;-1.10;99.90
26947;DHT22;14501;52.282;10.560;2023-04-06T05:15:36;-1.10;99.90
26947;DHT22;14501;52.282;10.560;2023-04-06T05:18:06;-1.00;99.90
26947;DHT22;14501;52.282;10.560;2023-04-06T05:20:32;-0.90;99.90
26947;DHT22;14501;52.282;10.560;2023-04-06T05:22:57;-0.80;99.90
26947;DHT22;14501;52.282;10.560;2023-04-06T05:25:23;-0.80;99.90
26947;DHT22;14501;52.282;10.560;2023-04-06T05:27:49;-0.70;99.90
26947;DHT22;14501;52.282;10.560;2023-04-06T05:30:15;-0.80;99.90
26947;DHT22;14501;52.282;10.560;2023-04-06T05:32:41;-0.60;99.90
26947;DHT22;14501;52.282;10.560;2023-04-06T05:35:08;-0.50;99.90
26947;DHT22;14501;52.282;10.560;2023-04-06T05:37:34;-0.40;99.90
26947;DHT22;14501;52.282;10.560;2023-04-06T05:40:00;-0.20;99.90
26947;DHT22;14501;52.282;10.560;2023-04-06T05:42:26;-0.20;99.90
26947;DHT22;14501;52.282;10.560;2023-04-06T05:44:52;-0.10;99.90
26947;DHT22;14501;52.282;10.560;2023-04-06T05:47:18;0.00;99.90
26947;DHT22;14501;52.282;10.560;2023-04-06T05:49:47;0.20;99.90
26947;DHT22;14501;52.282;10.560;2023-04-06T05:52:12;0.20;99.90
26947;DHT22;14501;52.282;10.560;2023-04-06T05:54:38;0.30;99.90
26947;DHT22;14501;52.282;10.560;2023-04-06T05:57:04;0.40;99.90
26947;DHT22;14501;52.282;10.560;2023-04-06T05:59:33;0.60;99.90
26947;DHT22;14501;52.282;10.560;2023-04-06T06:01:59;0.70;99.90
26947;DHT22;14501;52.282;10.560;2023-04-06T06:04:26;0.90;99.90
26947;DHT22;14501;52.282;10.560;2023-04-06T06:06:52;1.10;99.90
26947;DHT22;14501;52.282;10.560;2023-04-06T06:09:17;1.50;99.90
26947;DHT22;14501;52.282;10.560;2023-04-06T06:11:43;1.70;99.90
26947;DHT22;14501;52.282;10.560;2023-04-06T06:14:09;2.30;99.90
26947;DHT22;14501;52.282;10.560;2023-04-06T06:16:34;3.10;99.90
26947;DHT22;14501;52.282;10.560;2023-04-06T06:19:00;3.90;99.90
26947;DHT22;14501;52.282;10.560;2023-04-06T06:21:26;4.00;99.90
26947;DHT22;14501;52.282;10.560;2023-04-06T06:23:52;4.60;99.90
26947;DHT22;14501;52.282;10.560;2023-04-06T06:26:20;4.60;99.90
26947;DHT22;14501;52.282;10.560;2023-04-06T06:28:45;4.40;99.90
26947;DHT22;14501;52.282;10.560;2023-04-06T06:31:11;4.30;99.90
26947;DHT22;14501;52.282;10.560;2023-04-06T06:33:37;4.20;99.90
26947;DHT22;14501;52.282;10.560;2023-04-06T06:36:03;4.00;99.90
26947;DHT22;14501;52.282;10.560;2023-04-06T06:38:29;3.70;99.90
26947;DHT22;14501;52.282;10.560;2023-04-06T06:40:54;3.70;99.90
26947;DHT22;14501;52.282;10.560;2023-04-06T06:43:20;3.70;99.90
26947;DHT22;14501;52.282;10.560;2023-04-06T06:45:46;3.70;99.90
26947;DHT22;14501;52.282;10.560;2023-04-06T06:48:11;3.80;99.90
26947;DHT22;14501;52.282;10.560;2023-04-06T06:50:37;3.80;99.90
26947;DHT22;14501;52.282;10.560;2023-04-06T06:53:03;3.90;99.90
26947;DHT22;14501;52.282;10.560;2023-04-06T06:55:29;3.80;99.90
26947;DHT22;14501;52.282;10.560;2023-04-06T06:57:54;3.90;99.90
26947;DHT22;14501;52.282;10.560;2023-04-06T07:00:20;4.00;99.90
26947;DHT22;14501;52.282;10.560;2023-04-06T07:02:47;4.10;99.90
26947;DHT22;14501;52.282;10.560;2023-04-06T07:05:13;4.20;99.90
26947;DHT22;14501;52.282;10.560;2023-04-06T07:07:39;4.30;99.90
26947;DHT22;14501;52.282;10.560;2023-04-06T07:10:05;4.40;99.90
26947;DHT22;14501;52.282;10.560;2023-04-06T07:12:31;4.60;99.90
26947;DHT22;14501;52.282;10.560;2023-04-06T07:14:56;4.80;99.90
26947;DHT22;14501;52.282;10.560;2023-04-06T07:17:22;4.90;99.90
26947;DHT22;14501;52.282;10.560;2023-04-06T07:19:47;5.10;99.90
26947;DHT22;14501;52.282;10.560;2023-04-06T07:22:13;5.30;99.90
26947;DHT22;14501;52.282;10.560;2023-04-06T07:24:39;5.50;99.90
26947;DHT22;14501;52.282;10.560;2023-04-06T07:27:05;5.70;99.90
26947;DHT22;14501;52.282;10.560;2023-04-06T07:29:31;5.90;99.90
26947;DHT22;14501;52.282;10.560;2023-04-06T07:31:57;6.00;99.90
26947;DHT22;14501;52.282;10.560;2023-04-06T07:34:22;6.20;99.90
26947;DHT22;14501;52.282;10.560;2023-04-06T07:36:48;6.40;99.90
26947;DHT22;14501;52.282;10.560;2023-04-06T07:39:14;6.60;99.90
26947;DHT22;14501;52.282;10.560;2023-04-06T07:41:40;6.80;99.90
26947;DHT22;14501;52.282;10.560;2023-04-06T07:44:06;6.90;99.90
26947;DHT22;14501;52.282;10.560;2023-04-06T07:46:31;7.10;99.90
26947;DHT22;14501;52.282;10.560;2023-04-06T07:48:58;7.30;99.90
26947;DHT22;14501;52.282;10.560;2023-04-06T07:51:24;7.40;99.90
26947;DHT22;14501;52.282;10.560;2023-04-06T07:53:51;7.60;99.90
26947;DHT22;14501;52.282;10.560;2023-04-06T07:56:17;7.80;99.90
26947;DHT22;14501;52.282;10.560;2023-04-06T07:58:43;8.00;99.90
26947;DHT22;14501;52.282;10.560;2023-04-06T08:01:08;8.20;99.90
26947;DHT22;14501;52.282;10.560;2023-04-06T08:03:35;9.00;99.90
26947;DHT22;14501;52.282;10.560;2023-04-06T08:06:01;9.10;99.90
26947;DHT22;14501;52.282;10.560;2023-04-06T08:08:28;10.60;99.90
26947;DHT22;14501;52.282;10.560;2023-04-06T08:10:54;13.00;99.90
26947;DHT22;14501;52.282;10.560;2023-04-06T08:13:19;14.90;96.10
26947;DHT22;14501;52.282;10.560;2023-04-06T08:15:45;16.60;90.80
26947;DHT22;14501;52.282;10.560;2023-04-06T08:18:11;18.10;85.00
26947;DHT22;14501;52.282;10.560;2023-04-06T08:20:37;19.10;78.70
26947;DHT22;14501;52.282;10.560;2023-04-06T08:23:02;20.40;74.80
26947;DHT22;14501;52.282;10.560;2023-04-06T08:25:29;21.40;69.80
26947;DHT22;14501;52.282;10.560;2023-04-06T08:27:54;21.20;67.30
26947;DHT22;14501;52.282;10.560;2023-04-06T08:30:20;21.20;65.40
26947;DHT22;14501;52.282;10.560;2023-04-06T08:32:46;21.00;64.90
26947;DHT22;14501;52.282;10.560;2023-04-06T08:35:12;20.90;64.70
26947;DHT22;14501;52.282;10.560;2023-04-06T08:37:37;21.10;64.50
26947;DHT22;14501;52.282;10.560;2023-04-06T08:40:03;22.20;65.50
26947;DHT22;14501;52.282;10.560;2023-04-06T08:42:32;23.20;61.40
26947;DHT22;14501;52.282;10.560;2023-04-06T08:44:59;23.90;58.80
26947;DHT22;14501;52.282;10.560;2023-04-06T08:47:25;24.20;58.60
26947;DHT22;14501;52.282;10.560;2023-04-06T08:49:52;23.50;59.00
26947;DHT22;14501;52.282;10.560;2023-04-06T08:52:19;24.50;58.90
26947;DHT22;14501;52.282;10.560;2023-04-06T08:54:45;24.70;56.30
26947;DHT22;14501;52.282;10.560;2023-04-06T08:57:11;24.90;56.90
26947;DHT22;14501;52.282;10.560;2023-04-06T08:59:38;24.90;55.90
26947;DHT22;14501;52.282;10.560;2023-04-06T09:02:04;25.50;55.00
26947;DHT22;14501;52.282;10.560;2023-04-06T09:04:33;25.40;53.10
26947;DHT22;14501;52.282;10.560;2023-04-06T09:07:00;25.20;55.30
26947;DHT22;14501;52.282;10.560;2023-04-06T09:09:26;25.80;54.30
26947;DHT22;14501;52.282;10.560;2023-04-06T09:11:52;26.20;53.30
26947;DHT22;14501;52.282;10.560;2023-04-06T09:14:38;25.60;53.50
26947;DHT22;14501;52.282;10.560;2023-04-06T09:17:04;25.40;53.00
26947;DHT22;14501;52.282;10.560;2023-04-06T09:19:30;25.10;52.50
26947;DHT22;14501;52.282;10.560;2023-04-06T09:22:05;25.40;53.40
26947;DHT22;14501;52.282;10.560;2023-04-06T09:24:48;25.20;52.20
26947;DHT22;14501;52.282;10.560;2023-04-06T09:27:14;26.00;52.40
26947;DHT22;14501;52.282;10.560;2023-04-06T09:29:41;26.40;52.80
26947;DHT22;14501;52.282;10.560;2023-04-06T09:32:08;26.70;50.80
26947;DHT22;14501;52.282;10.560;2023-04-06T09:34:40;26.60;50.60
26947;DHT22;14501;52.282;10.560;2023-04-06T09:37:16;26.30;50.90
26947;DHT22;14501;52.282;10.560;2023-04-06T09:39:43;26.30;50.70
26947;DHT22;14501;52.282;10.560;2023-04-06T09:42:23;26.00;49.50
26947;DHT22;14501;52.282;10.560;2023-04-06T09:44:50;25.80;50.20
26947;DHT22;14501;52.282;10.560;2023-04-06T09:47:16;26.40;54.20
26947;DHT22;14501;52.282;10.560;2023-04-06T09:49:43;26.50;50.30
26947;DHT22;14501;52.282;10.560;2023-04-06T09:52:11;26.60;50.80
26947;DHT22;14501;52.282;10.560;2023-04-06T09:54:38;26.60;49.50
26947;DHT22;14501;52.282;10.560;2023-04-06T09:57:28;25.90;49.50
26947;DHT22;14501;52.282;10.560;2023-04-06T10:00:06;26.30;49.30
26947;DHT22;14501;52.282;10.560;2023-04-06T10:08:10;26.10;52.20
26947;DHT22;14501;52.282;10.560;2023-04-06T10:10:37;26.30;50.60
26947;DHT22;14501;52.282;10.560;2023-04-06T10:13:07;26.50;50.00
26947;DHT22;14501;52.282;10.560;2023-04-06T10:15:33;26.10;49.10
26947;DHT22;14501;52.282;10.560;2023-04-06T10:17:59;26.10;49.80
26947;DHT22;14501;52.282;10.560;2023-04-06T10:20:33;26.20;49.30
26947;DHT22;14501;52.282;10.560;2023-04-06T10:23:22;25.10;50.10
26947;DHT22;14501;52.282;10.560;2023-04-06T10:25:57;24.00;53.10
26947;DHT22;14501;52.282;10.560;2023-04-06T10:28:23;22.80;57.90
26947;DHT22;14501;52.282;10.560;2023-04-06T10:30:58;21.70;55.80
26947;DHT22;14501;52.282;10.560;2023-04-06T10:33:25;20.50;58.30
26947;DHT22;14501;52.282;10.560;2023-04-06T10:35:51;19.70;59.50
26947;DHT22;14501;52.282;10.560;2023-04-06T10:38:17;19.30;60.60
26947;DHT22;14501;52.282;10.560;2023-04-06T10:40:47;18.80;61.00
26947;DHT22;14501;52.282;10.560;2023-04-06T10:43:19;18.30;63.40
26947;DHT22;14501;52.282;10.560;2023-04-06T10:45:54;18.20;62.10
26947;DHT22;14501;52.282;10.560;2023-04-06T10:48:20;17.80;62.20
26947;DHT22;14501;52.282;10.560;2023-04-06T10:50:51;17.50;63.30
26947;DHT22;14501;52.282;10.560;2023-04-06T10:53:24;17.40;65.40
26947;DHT22;14501;52.282;10.560;2023-04-06T10:55:51;17.50;67.40
26947;DHT22;14501;52.282;10.560;2023-04-06T10:58:17;17.50;66.00
26947;DHT22;14501;52.282;10.560;2023-04-06T11:00:45;17.30;65.80
26947;DHT22;14501;52.282;10.560;2023-04-06T11:03:11;17.00;64.40
26947;DHT22;14501;52.282;10.560;2023-04-06T11:05:37;16.80;68.70
26947;DHT22;14501;52.282;10.560;2023-04-06T11:08:02;16.80;66.20
26947;DHT22;14501;52.282;10.560;2023-04-06T11:10:28;16.50;66.60
26947;DHT22;14501;52.282;10.560;2023-04-06T11:12:56;16.30;66.30
26947;DHT22;14501;52.282;10.560;2023-04-06T11:15:22;16.00;69.00
26947;DHT22;14501;52.282;10.560;2023-04-06T11:17:48;16.00;71.10
26947;DHT22;14501;52.282;10.560;2023-04-06T11:20:15;16.30;68.80
26947;DHT22;14501;52.282;10.560;2023-04-06T11:22:51;16.00;67.20
26947;DHT22;14501;52.282;10.560;2023-04-06T11:25:17;16.00;71.40
26947;DHT22;14501;52.282;10.560;2023-04-06T11:27:43;16.00;67.60
26947;DHT22;14501;52.282;10.560;2023-04-06T11:30:10;16.10;69.50
26947;DHT22;14501;52.282;10.560;2023-04-06T11:32:43;16.20;69.00
26947;DHT22;14501;52.282;10.560;2023-04-06T11:35:20;16.10;66.60
26947;DHT22;14501;52.282;10.560;2023-04-06T11:37:47;16.00;71.50
26947;DHT22;14501;52.282;10.560;2023-04-06T11:40:13;16.30;67.40
26947;DHT22;14501;52.282;10.560;2023-04-06T11:42:39;16.20;71.10
26947;DHT22;14501;52.282;10.560;2023-04-06T11:45:07;16.30;68.30
26947;DHT22;14501;52.282;10.560;2023-04-06T11:47:34;16.30;68.00
26947;DHT22;14501;52.282;10.560;2023-04-06T11:50:11;15.90;71.40
26947;DHT22;14501;52.282;10.560;2023-04-06T11:52:38;16.00;69.90
26947;DHT22;14501;52.282;10.560;2023-04-06T11:55:15;16.00;70.60
26947;DHT22;14501;52.282;10.560;2023-04-06T11:57:42;15.70;68.10
26947;DHT22;14501;52.282;10.560;2023-04-06T12:00:09;15.40;69.40
26947;DHT22;14501;52.282;10.560;2023-04-06T12:02:35;15.50;71.60
26947;DHT22;14501;52.282;10.560;2023-04-06T12:05:03;15.60;69.40
26947;DHT22;14501;52.282;10.560;2023-04-06T12:07:32;15.40;69.90
26947;DHT22;14501;52.282;10.560;2023-04-06T12:10:00;15.30;70.10
26947;DHT22;14501;52.282;10.560;2023-04-06T12:12:26;15.20;70.60
26947;DHT22;14501;52.282;10.560;2023-04-06T12:14:51;15.30;72.10
26947;DHT22;14501;52.282;10.560;2023-04-06T12:17:18;15.50;71.80
26947;DHT22;14501;52.282;10.560;2023-04-06T12:19:44;15.60;72.30
26947;DHT22;14501;52.282;10.560;2023-04-06T12:22:09;15.50;70.50
26947;DHT22;14501;52.282;10.560;2023-04-06T12:24:35;15.70;73.30
26947;DHT22;14501;52.282;10.560;2023-04-06T12:27:01;15.80;68.70
26947;DHT22;14501;52.282;10.560;2023-04-06T12:29:26;15.70;68.20
26947;DHT22;14501;52.282;10.560;2023-04-06T12:31:52;15.70;68.30
26947;DHT22;14501;52.282;10.560;2023-04-06T12:34:18;15.70;73.40
26947;DHT22;14501;52.282;10.560;2023-04-06T12:36:44;15.70;68.70
26947;DHT22;14501;52.282;10.560;2023-04-06T12:39:09;15.60;68.00
26947;DHT22;14501;52.282;10.560;2023-04-06T12:41:36;15.30;68.40
26947;DHT22;14501;52.282;10.560;2023-04-06T12:44:02;15.10;69.30
26947;DHT22;14501;52.282;10.560;2023-04-06T12:46:28;15.00;69.90
26947;DHT22;14501;52.282;10.560;2023-04-06T12:48:56;15.10;70.10
26947;DHT22;14501;52.282;10.560;2023-04-06T12:51:23;15.20;69.20
26947;DHT22;14501;52.282;10.560;2023-04-06T12:53:48;15.40;69.90
26947;DHT22;14501;52.282;10.560;2023-04-06T12:56:18;15.20;69.00
26947;DHT22;14501;52.282;10.560;2023-04-06T12:58:44;14.90;68.00
26947;DHT22;14501;52.282;10.560;2023-04-06T13:01:11;14.80;68.80
26947;DHT22;14501;52.282;10.560;2023-04-06T13:03:40;15.10;69.10
26947;DHT22;14501;52.282;10.560;2023-04-06T13:06:06;15.00;70.10
26947;DHT22;14501;52.282;10.560;2023-04-06T13:08:33;15.20;71.30
26947;DHT22;14501;52.282;10.560;2023-04-06T13:10:59;14.90;68.70
26947;DHT22;14501;52.282;10.560;2023-04-06T13:13:26;15.00;71.10
26947;DHT22;14501;52.282;10.560;2023-04-06T13:15:53;14.90;69.30
26947;DHT22;14501;52.282;10.560;2023-04-06T13:18:19;14.90;73.40
26947;DHT22;14501;52.282;10.560;2023-04-06T13:20:47;15.10;73.20
26947;DHT22;14501;52.282;10.560;2023-04-06T13:23:13;15.20;72.90
26947;DHT22;14501;52.282;10.560;2023-04-06T13:25:38;15.30;67.10
26947;DHT22;14501;52.282;10.560;2023-04-06T13:28:04;15.30;66.20
26947;DHT22;14501;52.282;10.560;2023-04-06T13:30:30;15.20;67.00
26947;DHT22;14501;52.282;10.560;2023-04-06T13:32:56;14.80;67.40
26947;DHT22;14501;52.282;10.560;2023-04-06T13:35:21;15.50;66.00
26947;DHT22;14501;52.282;10.560;2023-04-06T13:37:47;15.30;66.50
26947;DHT22;14501;52.282;10.560;2023-04-06T13:40:14;14.50;67.20
26947;DHT22;14501;52.282;10.560;2023-04-06T13:45:07;14.50;68.50
26947;DHT22;14501;52.282;10.560;2023-04-06T13:47:33;14.60;72.60
26947;DHT22;14501;52.282;10.560;2023-04-06T13:49:59;14.90;68.70
26947;DHT22;14501;52.282;10.560;2023-04-06T13:54:51;14.80;66.80
26947;DHT22;14501;52.282;10.560;2023-04-06T13:57:16;14.90;67.80
26947;DHT22;14501;52.282;10.560;2023-04-06T13:59:42;14.70;67.20
26947;DHT22;14501;52.282;10.560;2023-04-06T14:02:09;14.60;66.00
26947;DHT22;14501;52.282;10.560;2023-04-06T14:04:35;14.50;66.60
26947;DHT22;14501;52.282;10.560;2023-04-06T14:07:02;14.50;67.20
26947;DHT22;14501;52.282;10.560;2023-04-06T14:09:28;14.30;68.30
26947;DHT22;14501;52.282;10.560;2023-04-06T14:11:55;14.80;70.40
26947;DHT22;14501;52.282;10.560;2023-04-06T14:14:20;14.50;67.50
26947;DHT22;14501;52.282;10.560;2023-04-06T14:16:46;14.40;67.90
26947;DHT22;14501;52.282;10.560;2023-04-06T14:19:14;14.40;68.40
26947;DHT22;14501;52.282;10.560;2023-04-06T14:21:41;14.40;67.90
26947;DHT22;14501;52.282;10.560;2023-04-06T14:24:08;14.10;69.20
26947;DHT22;14501;52.282;10.560;2023-04-06T14:29:00;14.30;72.30
26947;DHT22;14501;52.282;10.560;2023-04-06T14:31:26;14.40;70.60
26947;DHT22;14501;52.282;10.560;2023-04-06T14:33:52;14.40;67.60
26947;DHT22;14501;52.282;10.560;2023-04-06T14:38:44;14.20;67.30
26947;DHT22;14501;52.282;10.560;2023-04-06T14:41:16;14.10;67.80
26947;DHT22;14501;52.282;10.560;2023-04-06T14:43:42;14.10;68.60
26947;DHT22;14501;52.282;10.560;2023-04-06T14:46:08;14.00;67.30
26947;DHT22;14501;52.282;10.560;2023-04-06T14:48:34;13.80;67.30
26947;DHT22;14501;52.282;10.560;2023-04-06T14:51:00;13.80;68.80
26947;DHT22;14501;52.282;10.560;2023-04-06T14:53:26;13.90;69.20
26947;DHT22;14501;52.282;10.560;2023-04-06T14:55:52;13.60;69.30
26947;DHT22;14501;52.282;10.560;2023-04-06T14:58:19;13.60;69.70
26947;DHT22;14501;52.282;10.560;2023-04-06T15:03:10;13.50;69.80
26947;DHT22;14501;52.282;10.560;2023-04-06T15:05:36;13.60;69.50
26947;DHT22;14501;52.282;10.560;2023-04-06T15:08:02;13.60;70.80
26947;DHT22;14501;52.282;10.560;2023-04-06T15:10:31;13.60;71.30
26947;DHT22;14501;52.282;10.560;2023-04-06T15:12:56;13.60;70.40
26947;DHT22;14501;52.282;10.560;2023-04-06T15:15:22;13.60;70.30
26947;DHT22;14501;52.282;10.560;2023-04-06T15:17:47;13.50;70.60
26947;DHT22;14501;52.282;10.560;2023-04-06T15:20:13;13.50;71.70
26947;DHT22;14501;52.282;10.560;2023-04-06T15:22:38;13.40;71.60
26947;DHT22;14501;52.282;10.560;2023-04-06T15:25:05;13.40;71.60
26947;DHT22;14501;52.282;10.560;2023-04-06T15:27:30;13.40;72.60
26947;DHT22;14501;52.282;10.560;2023-04-06T15:32:24;13.40;71.70
26947;DHT22;14501;52.282;10.560;2023-04-06T15:34:50;13.50;71.60
26947;DHT22;14501;52.282;10.560;2023-04-06T15:37:16;13.50;71.50
26947;DHT22;14501;52.282;10.560;2023-04-06T15:39:41;13.30;70.90
26947;DHT22;14501;52.282;10.560;2023-04-06T15:44:34;13.30;71.00
26947;DHT22;14501;52.282;10.560;2023-04-06T15:49:25;13.20;71.30
26947;DHT22;14501;52.282;10.560;2023-04-06T15:51:51;13.20;71.50